Terminal Aerodrome Forecast
Issued by NWS

Home | Current Version | Previous Version | Text Only | Print | Product List | Glossary Off
Versions: 1 2 3 4 5 6 7 8 9 10 11 12 13 14 15 16 17 18

013
FTUS43 KICT 101720
TAFSLN
TAF
KSLN 101720Z 1018/1118 26014G20KT P6SM SKC
     FM102200 30013KT P6SM SKC
     FM110000 34008KT P6SM SKC
     FM110900 36011KT P6SM FEW010 SCT015=

USA.gov is the U.S. government's official web portal to all federal, state and local government web resources and services.